createdAt,value
2022-12-29T00:01:33.876Z,1.13
2022-12-29T00:04:02.186Z,1.88
2022-12-29T00:06:40.389Z,1.70
2022-12-29T00:09:17.573Z,2.05
2022-12-29T00:11:45.060Z,0.98
2022-12-29T00:14:34.057Z,0.93
2022-12-29T00:17:05.602Z,0.70
2022-12-29T00:19:52.167Z,0.90
2022-12-29T00:22:41.854Z,1.10
2022-12-29T00:25:39.384Z,1.42
2022-12-29T00:28:33.165Z,1.10
2022-12-29T00:31:26.444Z,1.08
2022-12-29T00:37:22.373Z,0.90
2022-12-29T00:43:04.271Z,0.90
2022-12-29T00:45:39.130Z,1.25
2022-12-29T00:48:05.999Z,0.98
2022-12-29T00:50:45.162Z,1.48
2022-12-29T00:53:14.538Z,0.95
2022-12-29T00:55:51.125Z,1.52
2022-12-29T00:58:22.223Z,0.80
2022-12-29T01:01:17.738Z,1.77
2022-12-29T01:03:46.734Z,1.60
2022-12-29T01:06:22.561Z,0.90
2022-12-29T01:11:58.208Z,0.73
2022-12-29T01:14:33.177Z,0.90
2022-12-29T01:17:01.842Z,0.80
2022-12-29T01:19:43.187Z,1.48
2022-12-29T01:22:12.165Z,0.90
2022-12-29T01:24:41.349Z,0.80
2022-12-29T01:27:10.965Z,0.65
2022-12-29T01:29:40.079Z,0.70
2022-12-29T01:32:11.010Z,1.52
2022-12-29T01:34:43.017Z,0.60
2022-12-29T01:37:12.457Z,0.77
2022-12-29T01:39:45.474Z,0.70
2022-12-29T01:42:22.305Z,0.73
2022-12-29T01:45:06.284Z,0.60
2022-12-29T01:51:04.490Z,0.55
2022-12-29T01:53:40.187Z,1.10
2022-12-29T01:56:32.661Z,0.80
2022-12-29T01:59:16.485Z,0.70
2022-12-29T02:01:47.906Z,0.52
2022-12-29T02:04:17.220Z,0.50
2022-12-29T02:06:59.555Z,0.52
2022-12-29T02:09:29.636Z,0.70
2022-12-29T02:12:01.680Z,0.52
2022-12-29T02:14:30.669Z,0.80
2022-12-29T02:17:15.484Z,0.70
2022-12-29T02:20:11.529Z,0.50
2022-12-29T02:22:51.892Z,1.25
2022-12-29T02:25:44.653Z,0.50
2022-12-29T02:28:34.588Z,0.60
2022-12-29T02:31:23.603Z,0.63
2022-12-29T02:34:00.969Z,2.08
2022-12-29T02:36:57.763Z,1.98
2022-12-29T02:39:54.473Z,2.53
2022-12-29T02:42:36.508Z,1.30
2022-12-29T02:45:19.599Z,0.82
2022-12-29T02:47:59.437Z,0.50
2022-12-29T02:50:44.239Z,1.38
2022-12-29T02:53:47.590Z,0.95
2022-12-29T02:59:08.185Z,0.90
2022-12-29T03:02:22.510Z,0.60
2022-12-29T03:05:07.233Z,0.70
2022-12-29T03:08:36.574Z,1.08
2022-12-29T03:11:33.691Z,0.93
2022-12-29T03:14:33.559Z,1.52
2022-12-29T03:17:30.883Z,1.23
2022-12-29T03:20:06.169Z,1.15
2022-12-29T03:22:49.468Z,3.90
2022-12-29T03:25:28.216Z,1.13
2022-12-29T03:28:03.898Z,1.20
2022-12-29T03:30:34.124Z,1.17
2022-12-29T03:33:07.068Z,0.70
2022-12-29T03:35:44.238Z,2.63
2022-12-29T03:38:29.355Z,3.38
2022-12-29T03:41:03.227Z,1.63
2022-12-29T03:43:31.213Z,1.02
2022-12-29T03:46:05.829Z,1.23
2022-12-29T03:48:37.581Z,0.93
2022-12-29T03:51:08.910Z,2.28
2022-12-29T03:53:38.200Z,2.78
2022-12-29T03:56:05.285Z,1.02
2022-12-29T03:58:42.843Z,0.73
2022-12-29T04:01:11.075Z,1.13
2022-12-29T04:03:45.450Z,1.00
2022-12-29T04:06:13.466Z,1.58
2022-12-29T04:08:45.939Z,1.45
2022-12-29T04:11:18.601Z,2.33
2022-12-29T04:13:45.465Z,0.93
2022-12-29T04:16:28.701Z,1.52
2022-12-29T04:19:17.301Z,0.70
2022-12-29T04:21:47.175Z,0.60
2022-12-29T04:24:21.024Z,2.50
2022-12-29T04:26:54.886Z,1.85
2022-12-29T04:29:25.884Z,0.80
2022-12-29T04:34:29.130Z,0.70
2022-12-29T04:37:00.464Z,2.00
2022-12-29T04:39:36.858Z,0.52
2022-12-29T04:42:24.332Z,0.80
2022-12-29T04:44:54.928Z,1.27
2022-12-29T04:47:22.500Z,0.73
2022-12-29T04:49:54.545Z,1.42
2022-12-29T04:52:27.107Z,0.68
2022-12-29T04:57:46.943Z,1.08
2022-12-29T05:00:16.611Z,1.88
2022-12-29T05:02:43.435Z,2.45
2022-12-29T05:05:10.290Z,0.65
2022-12-29T05:07:36.859Z,0.70
2022-12-29T05:10:04.208Z,1.05
2022-12-29T05:12:32.135Z,1.02
2022-12-29T05:14:58.650Z,2.20
2022-12-29T05:17:25.241Z,1.90
2022-12-29T05:19:51.741Z,1.85
2022-12-29T05:22:18.219Z,1.33
2022-12-29T05:24:44.925Z,2.03
2022-12-29T05:27:11.524Z,0.85
2022-12-29T05:29:38.029Z,0.75
2022-12-29T05:32:04.782Z,0.65
2022-12-29T05:34:31.195Z,1.17
2022-12-29T05:36:57.613Z,7.55
2022-12-29T05:39:24.058Z,0.57
2022-12-29T05:41:50.616Z,1.02
2022-12-29T05:44:17.259Z,2.28
2022-12-29T05:46:44.868Z,2.35
2022-12-29T05:49:11.393Z,2.13
2022-12-29T05:51:37.933Z,1.23
2022-12-29T05:54:04.575Z,1.85
2022-12-29T05:56:31.056Z,0.90
2022-12-29T05:58:57.548Z,0.75
2022-12-29T06:01:24.044Z,1.00
2022-12-29T06:03:50.704Z,2.58
2022-12-29T06:06:17.252Z,1.08
2022-12-29T06:08:43.769Z,2.20
2022-12-29T06:11:10.376Z,3.22
2022-12-29T06:13:36.957Z,2.30
2022-12-29T06:16:03.681Z,1.75
2022-12-29T06:18:30.172Z,3.95
2022-12-29T06:21:04.110Z,1.27
2022-12-29T06:23:30.633Z,1.83
2022-12-29T06:25:58.211Z,2.25
2022-12-29T06:28:24.810Z,3.28
2022-12-29T06:30:51.361Z,3.63
2022-12-29T06:33:17.975Z,1.75
2022-12-29T06:35:44.801Z,1.83
2022-12-29T06:38:11.470Z,1.30
2022-12-29T06:40:38.035Z,2.88
2022-12-29T06:43:04.478Z,0.93
2022-12-29T06:45:30.913Z,1.75
2022-12-29T06:47:57.449Z,1.30
2022-12-29T06:50:24.037Z,3.08
2022-12-29T06:52:50.487Z,1.92
2022-12-29T06:55:17.397Z,2.15
2022-12-29T06:57:43.851Z,1.63
2022-12-29T07:00:10.780Z,1.48
2022-12-29T07:02:37.280Z,2.83
2022-12-29T07:05:04.036Z,3.20
2022-12-29T07:07:30.441Z,1.08
2022-12-29T07:09:56.892Z,2.90
2022-12-29T07:12:23.529Z,2.65
2022-12-29T07:14:49.984Z,2.00
2022-12-29T07:17:16.456Z,4.68
2022-12-29T07:19:43.015Z,1.30
2022-12-29T07:22:10.427Z,3.03
2022-12-29T07:24:36.909Z,2.13
2022-12-29T07:27:03.452Z,1.77
2022-12-29T07:29:29.871Z,1.95
2022-12-29T07:31:56.392Z,2.63
2022-12-29T07:34:22.996Z,3.83
2022-12-29T07:36:49.464Z,1.65
2022-12-29T07:39:15.907Z,1.95
2022-12-29T07:41:42.351Z,2.40
2022-12-29T07:44:09.662Z,4.25
2022-12-29T07:46:55.216Z,2.53
2022-12-29T07:49:24.734Z,2.78
2022-12-29T07:51:51.276Z,2.63
2022-12-29T07:54:20.792Z,6.32
2022-12-29T07:56:47.331Z,8.20
2022-12-29T07:59:13.758Z,1.92
2022-12-29T08:01:40.366Z,4.20
2022-12-29T08:04:07.219Z,2.22
2022-12-29T08:06:33.877Z,5.75
2022-12-29T08:09:08.363Z,3.42
2022-12-29T08:11:39.473Z,3.10
2022-12-29T08:14:06.042Z,4.80
2022-12-29T08:16:33.463Z,3.13
2022-12-29T08:19:00.375Z,3.10
2022-12-29T08:21:28.683Z,4.00
2022-12-29T08:23:55.280Z,2.08
2022-12-29T08:26:21.862Z,1.63
2022-12-29T08:28:48.341Z,4.18
2022-12-29T08:31:14.895Z,5.85
2022-12-29T08:33:41.360Z,2.58
2022-12-29T08:36:08.404Z,3.03
2022-12-29T08:38:37.338Z,3.55
2022-12-29T08:41:03.932Z,4.53
2022-12-29T08:43:31.254Z,4.38
2022-12-29T08:46:01.208Z,3.70
2022-12-29T08:48:28.145Z,2.42
2022-12-29T08:50:55.154Z,3.70
2022-12-29T08:53:21.629Z,3.13
2022-12-29T08:55:59.271Z,2.50
2022-12-29T08:58:28.867Z,7.13
2022-12-29T09:00:56.968Z,4.95
2022-12-29T09:03:46.085Z,2.20
2022-12-29T09:06:10.649Z,6.43
2022-12-29T09:08:37.102Z,5.38
2022-12-29T09:11:19.184Z,14.85
2022-12-29T09:13:46.004Z,4.28
2022-12-29T09:16:12.656Z,4.20
2022-12-29T09:18:39.741Z,3.40
2022-12-29T09:21:06.981Z,3.53
2022-12-29T09:23:56.846Z,3.88
2022-12-29T09:26:43.348Z,5.38
2022-12-29T09:29:31.984Z,4.80
2022-12-29T09:31:58.449Z,5.82
2022-12-29T09:34:24.952Z,4.32
2022-12-29T09:36:51.413Z,9.02
2022-12-29T09:39:17.942Z,5.20
2022-12-29T09:41:52.176Z,4.43
2022-12-29T09:44:30.770Z,5.70
2022-12-29T09:46:57.714Z,3.78
2022-12-29T09:49:31.719Z,4.57
2022-12-29T09:52:05.390Z,3.97
2022-12-29T09:55:00.126Z,4.07
2022-12-29T09:57:41.157Z,3.92
2022-12-29T10:00:19.911Z,3.17
2022-12-29T10:03:15.274Z,5.65
2022-12-29T10:05:51.805Z,4.45
2022-12-29T10:08:18.265Z,4.00
2022-12-29T10:10:56.012Z,3.60
2022-12-29T10:13:36.034Z,4.57
2022-12-29T10:16:11.709Z,5.57
2022-12-29T10:19:06.495Z,2.80
2022-12-29T10:21:53.471Z,6.45
2022-12-29T10:24:20.530Z,5.32
2022-12-29T10:26:48.301Z,1.83
2022-12-29T10:29:21.060Z,6.60
2022-12-29T10:31:56.209Z,7.05
2022-12-29T10:34:27.193Z,6.18
2022-12-29T10:39:47.041Z,5.47
2022-12-29T10:42:41.623Z,4.10
2022-12-29T10:45:16.550Z,4.28
2022-12-29T10:47:55.161Z,4.57
2022-12-29T10:50:21.631Z,5.07
2022-12-29T10:52:49.076Z,3.38
2022-12-29T10:55:29.090Z,6.65
2022-12-29T10:58:00.002Z,4.22
2022-12-29T11:00:26.611Z,4.72
2022-12-29T11:02:59.087Z,4.78
2022-12-29T11:05:59.745Z,4.47
2022-12-29T11:08:29.336Z,5.80
2022-12-29T11:11:02.225Z,7.10
2022-12-29T11:13:36.724Z,5.32
2022-12-29T11:16:05.497Z,6.43
2022-12-29T11:18:38.452Z,5.00
2022-12-29T11:21:45.936Z,9.80
2022-12-29T11:24:24.493Z,7.35
2022-12-29T11:26:53.957Z,4.47
2022-12-29T11:29:38.975Z,5.68
2022-12-29T11:32:34.713Z,4.13
2022-12-29T11:35:02.026Z,4.00
2022-12-29T11:37:35.597Z,5.63
2022-12-29T11:40:06.582Z,5.35
2022-12-29T11:42:42.188Z,6.10
2022-12-29T11:45:17.759Z,4.65
2022-12-29T11:47:46.933Z,8.40
2022-12-29T11:50:20.025Z,6.72
2022-12-29T11:52:47.225Z,9.38
2022-12-29T11:55:22.871Z,7.30
2022-12-29T11:57:51.227Z,5.85
2022-12-29T12:00:20.793Z,7.07
2022-12-29T12:02:56.240Z,3.72
2022-12-29T12:05:34.914Z,5.53
2022-12-29T12:08:13.049Z,4.72
2022-12-29T12:10:51.189Z,7.15
2022-12-29T12:13:22.213Z,6.65
2022-12-29T12:15:56.371Z,4.80
2022-12-29T12:18:54.057Z,5.97
2022-12-29T12:21:45.346Z,4.70
2022-12-29T12:24:33.075Z,6.32
2022-12-29T12:27:03.276Z,6.07
2022-12-29T12:29:38.236Z,4.28
2022-12-29T12:32:31.023Z,5.55
2022-12-29T12:34:57.596Z,8.55
2022-12-29T12:37:49.082Z,7.13
2022-12-29T12:40:31.700Z,4.00
2022-12-29T12:43:28.309Z,6.43
2022-12-29T12:46:10.070Z,6.95
2022-12-29T12:48:58.533Z,6.55
2022-12-29T12:51:44.015Z,8.55
2022-12-29T12:54:44.465Z,4.78
2022-12-29T12:57:18.121Z,5.55
2022-12-29T12:59:50.855Z,4.30
2022-12-29T13:02:20.618Z,2.45
2022-12-29T13:05:27.022Z,7.13
2022-12-29T13:08:19.193Z,5.55
2022-12-29T13:10:53.169Z,6.50
2022-12-29T13:13:50.397Z,3.15
2022-12-29T13:16:37.753Z,8.90
2022-12-29T13:19:10.133Z,6.57
2022-12-29T13:21:57.389Z,4.20
2022-12-29T13:24:48.933Z,4.63
2022-12-29T13:27:51.054Z,7.75
2022-12-29T13:30:20.677Z,4.80
2022-12-29T13:33:08.581Z,6.95
2022-12-29T13:35:56.498Z,5.40
2022-12-29T13:38:44.845Z,7.65
2022-12-29T13:41:26.960Z,5.75
2022-12-29T13:43:54.252Z,5.95
2022-12-29T13:46:27.931Z,6.95
2022-12-29T13:48:57.803Z,4.30
2022-12-29T13:51:27.966Z,4.82
2022-12-29T13:54:06.950Z,3.08
2022-12-29T13:56:43.463Z,3.80
2022-12-29T13:59:21.054Z,2.67
2022-12-29T14:01:56.666Z,6.10
2022-12-29T14:04:26.335Z,4.45
2022-12-29T14:07:02.184Z,4.88
2022-12-29T14:09:43.805Z,6.13
2022-12-29T14:12:33.444Z,9.07
2022-12-29T14:15:05.322Z,4.68
2022-12-29T14:17:31.904Z,6.88
2022-12-29T14:19:58.379Z,7.47
2022-12-29T14:22:32.625Z,7.15
2022-12-29T14:25:00.370Z,5.90
2022-12-29T14:27:29.858Z,8.90
2022-12-29T14:29:56.472Z,4.93
2022-12-29T14:32:25.722Z,4.65
2022-12-29T14:34:52.972Z,6.05
2022-12-29T14:37:40.019Z,5.60
2022-12-29T14:40:16.553Z,4.18
2022-12-29T14:42:43.354Z,5.05
2022-12-29T14:45:15.996Z,3.58
2022-12-29T14:47:44.838Z,11.90
2022-12-29T14:50:11.266Z,4.68
2022-12-29T14:52:49.909Z,3.33
2022-12-29T14:55:16.382Z,6.15
2022-12-29T14:57:45.273Z,6.50
2022-12-29T15:00:27.336Z,8.25
2022-12-29T15:03:36.348Z,3.50
2022-12-29T15:06:09.716Z,5.13
2022-12-29T15:08:59.877Z,4.63
2022-12-29T15:11:52.256Z,5.22
2022-12-29T15:15:03.943Z,4.70
2022-12-29T15:17:56.285Z,4.55
2022-12-29T15:20:37.416Z,6.05
2022-12-29T15:23:24.602Z,2.65
2022-12-29T15:26:26.699Z,5.00
2022-12-29T15:31:48.985Z,4.43
2022-12-29T15:34:24.731Z,5.60
2022-12-29T15:36:57.523Z,8.43
2022-12-29T15:39:32.310Z,4.75
2022-12-29T15:42:41.246Z,6.95
2022-12-29T15:45:13.843Z,5.00
2022-12-29T15:47:45.390Z,5.28
2022-12-29T15:50:41.154Z,8.00
2022-12-29T15:53:41.835Z,3.00
2022-12-29T15:56:11.224Z,3.95
2022-12-29T15:58:49.451Z,5.97
2022-12-29T16:01:40.145Z,7.25
2022-12-29T16:04:09.049Z,7.57
2022-12-29T16:06:42.106Z,2.72
2022-12-29T16:09:19.961Z,5.80
2022-12-29T16:11:59.362Z,6.35
2022-12-29T16:14:35.146Z,5.88
2022-12-29T16:17:13.266Z,4.28
2022-12-29T16:19:43.879Z,3.55
2022-12-29T16:22:44.927Z,3.83
2022-12-29T16:25:31.947Z,5.63
2022-12-29T16:28:01.519Z,6.70
2022-12-29T16:30:36.317Z,4.20
2022-12-29T16:33:42.185Z,2.75
2022-12-29T16:36:37.007Z,4.38
2022-12-29T16:39:14.498Z,3.47
2022-12-29T16:41:43.797Z,7.68
2022-12-29T16:44:34.256Z,8.57
2022-12-29T16:47:10.957Z,6.15
2022-12-29T16:49:49.805Z,8.98
2022-12-29T16:52:28.685Z,6.70
2022-12-29T16:55:05.789Z,9.52
2022-12-29T16:57:35.235Z,7.38
2022-12-29T17:00:24.256Z,12.38
2022-12-29T17:03:01.878Z,4.65
2022-12-29T17:05:33.797Z,7.63
2022-12-29T17:08:13.563Z,5.75
2022-12-29T17:11:00.389Z,10.77
2022-12-29T17:13:51.463Z,5.20
2022-12-29T17:16:24.152Z,9.45
2022-12-29T17:18:58.890Z,7.70
2022-12-29T17:21:32.373Z,5.78
2022-12-29T17:24:03.232Z,9.18
2022-12-29T17:26:32.197Z,9.25
2022-12-29T17:29:04.647Z,7.28
2022-12-29T17:31:38.798Z,7.30
2022-12-29T17:34:14.642Z,7.13
2022-12-29T17:36:53.738Z,5.10
2022-12-29T17:39:22.750Z,7.30
2022-12-29T17:41:54.240Z,2.70
2022-12-29T17:44:23.557Z,4.53
2022-12-29T17:46:53.086Z,1.92
2022-12-29T17:49:24.409Z,3.22
2022-12-29T17:51:52.522Z,2.63
2022-12-29T17:54:22.914Z,3.92
2022-12-29T17:56:53.295Z,4.20
2022-12-29T17:59:29.740Z,5.85
2022-12-29T18:02:02.731Z,3.03
2022-12-29T18:04:40.353Z,2.85
2022-12-29T18:07:11.069Z,3.47
2022-12-29T18:09:39.985Z,5.03
2022-12-29T18:12:38.055Z,4.38
2022-12-29T18:15:12.991Z,4.20
2022-12-29T18:17:51.409Z,4.43
2022-12-29T18:20:22.791Z,3.70
2022-12-29T18:22:52.109Z,5.40
2022-12-29T18:25:44.516Z,6.80
2022-12-29T18:28:21.106Z,4.53
2022-12-29T18:30:57.257Z,5.38
2022-12-29T18:33:41.061Z,7.13
2022-12-29T18:36:13.766Z,17.00
2022-12-29T18:38:43.056Z,2.58
2022-12-29T18:41:19.297Z,5.40
2022-12-29T18:46:41.143Z,7.25
2022-12-29T18:49:14.858Z,8.93
2022-12-29T18:51:43.871Z,7.53
2022-12-29T18:54:31.394Z,10.95
2022-12-29T18:57:02.247Z,4.70
2022-12-29T18:59:29.255Z,6.43
2022-12-29T19:01:58.689Z,4.30
2022-12-29T19:04:37.196Z,8.27
2022-12-29T19:07:05.106Z,9.55
2022-12-29T19:09:37.619Z,10.73
2022-12-29T19:12:11.471Z,10.60
2022-12-29T19:14:45.030Z,4.75
2022-12-29T19:17:19.024Z,8.27
2022-12-29T19:19:49.085Z,10.00
2022-12-29T19:22:25.019Z,11.00
2022-12-29T19:25:00.519Z,10.27
2022-12-29T19:27:29.870Z,9.32
2022-12-29T19:32:42.306Z,6.55
2022-12-29T19:38:08.965Z,8.88
2022-12-29T19:40:35.558Z,7.15
2022-12-29T19:43:01.983Z,10.63
2022-12-29T19:45:28.581Z,12.45
2022-12-29T19:47:55.095Z,10.70
2022-12-29T19:50:21.879Z,11.80
2022-12-29T19:52:48.683Z,9.70
2022-12-29T19:55:16.495Z,8.02
2022-12-29T19:57:43.734Z,9.30
2022-12-29T20:00:10.995Z,8.18
2022-12-29T20:02:38.844Z,10.90
2022-12-29T20:05:06.855Z,9.88
2022-12-29T20:07:33.533Z,13.48
2022-12-29T20:10:00.005Z,13.82
2022-12-29T20:12:29.349Z,9.02
2022-12-29T20:14:56.697Z,8.80
2022-12-29T20:17:53.935Z,7.85
2022-12-29T20:20:10.124Z,11.50
2022-12-29T20:22:37.179Z,10.85
2022-12-29T20:25:42.905Z,18.83
2022-12-29T20:27:50.368Z,8.15
2022-12-29T20:30:16.882Z,11.43
2022-12-29T20:32:43.366Z,7.90
2022-12-29T20:35:12.211Z,10.27
2022-12-29T20:37:38.762Z,5.80
2022-12-29T20:40:05.639Z,9.45
2022-12-29T20:42:32.194Z,7.45
2022-12-29T20:44:58.660Z,6.68
2022-12-29T20:47:26.777Z,9.60
2022-12-29T20:49:53.407Z,9.23
2022-12-29T20:52:19.891Z,10.23
2022-12-29T20:54:46.503Z,16.58
2022-12-29T20:57:13.041Z,9.68
2022-12-29T20:59:39.623Z,8.38
2022-12-29T21:02:06.690Z,9.63
2022-12-29T21:04:57.584Z,7.30
2022-12-29T21:07:20.538Z,6.13
2022-12-29T21:09:47.205Z,12.27
2022-12-29T21:12:14.946Z,6.35
2022-12-29T21:14:45.579Z,9.77
2022-12-29T21:17:12.779Z,8.85
2022-12-29T21:19:39.513Z,11.57
2022-12-29T21:22:06.018Z,14.25
2022-12-29T21:24:32.811Z,10.18
2022-12-29T21:26:59.337Z,8.98
2022-12-29T21:29:26.678Z,7.82
2022-12-29T21:31:53.256Z,9.20
2022-12-29T21:34:19.803Z,7.22
2022-12-29T21:36:46.401Z,10.15
2022-12-29T21:39:16.304Z,6.45
2022-12-29T21:41:42.971Z,9.00
2022-12-29T21:44:29.473Z,10.23
2022-12-29T21:46:56.001Z,8.55
2022-12-29T21:49:25.239Z,9.60
2022-12-29T21:51:53.813Z,8.15
2022-12-29T21:54:46.905Z,10.70
2022-12-29T21:57:37.978Z,6.70
2022-12-29T22:03:18.303Z,5.85
2022-12-29T22:06:07.602Z,11.13
2022-12-29T22:08:52.918Z,3.25
2022-12-29T22:11:38.503Z,8.40
2022-12-29T22:14:06.443Z,8.70
2022-12-29T22:16:33.284Z,7.55
2022-12-29T22:18:59.956Z,11.45
2022-12-29T22:21:26.685Z,10.15
2022-12-29T22:23:53.133Z,14.70
2022-12-29T22:26:19.698Z,13.15
2022-12-29T22:28:47.924Z,10.35
2022-12-29T22:31:27.193Z,16.13
2022-12-29T22:33:55.626Z,10.80
2022-12-29T22:36:23.152Z,8.23
2022-12-29T22:38:50.236Z,11.35
2022-12-29T22:41:16.817Z,14.30
2022-12-29T22:43:43.238Z,10.15
2022-12-29T22:46:09.906Z,7.40
2022-12-29T22:48:36.779Z,6.22
2022-12-29T22:51:03.839Z,6.60
2022-12-29T22:53:30.739Z,10.13
2022-12-29T22:56:11.776Z,13.07
2022-12-29T23:01:09.245Z,6.95
2022-12-29T23:03:35.989Z,9.35
2022-12-29T23:06:05.372Z,11.07
2022-12-29T23:08:35.474Z,6.65
2022-12-29T23:11:02.506Z,7.33
2022-12-29T23:13:29.505Z,8.60
2022-12-29T23:15:56.029Z,7.85
2022-12-29T23:18:25.224Z,11.68
2022-12-29T23:20:51.802Z,9.18
2022-12-29T23:23:38.787Z,6.25
2022-12-29T23:26:08.707Z,10.13
2022-12-29T23:28:35.304Z,8.63
2022-12-29T23:31:02.029Z,9.77
2022-12-29T23:33:28.563Z,9.82
2022-12-29T23:35:55.042Z,7.95
2022-12-29T23:38:21.614Z,9.30
2022-12-29T23:40:48.460Z,10.20
2022-12-29T23:43:15.042Z,9.95
2022-12-29T23:45:45.995Z,8.00
2022-12-29T23:48:15.447Z,10.80
2022-12-29T23:50:42.782Z,11.68
2022-12-29T23:53:10.811Z,15.77
2022-12-29T23:55:38.915Z,11.48
2022-12-29T23:58:05.412Z,11.45
